sensor_id;sensor_type;location;lat;lon;timestamp;pressure;altitude;pressure_sealevel;temperature;humidity
68476;BME280;55464;48.266;14.188;2023-05-24T00:02:20;97736.91;;;16.80;74.00
68476;BME280;55464;48.266;14.188;2023-05-24T00:04:47;97727.75;;;16.80;72.52
68476;BME280;55464;48.266;14.188;2023-05-24T00:07:14;97739.34;;;16.86;73.36
68476;BME280;55464;48.266;14.188;2023-05-24T00:09:41;97744.88;;;16.82;74.46
68476;BME280;55464;48.266;14.188;2023-05-24T00:12:06;97741.75;;;16.84;73.59
68476;BME280;55464;48.266;14.188;2023-05-24T00:14:32;97751.22;;;16.82;72.74
68476;BME280;55464;48.266;14.188;2023-05-24T00:16:57;97740.53;;;16.85;71.90
68476;BME280;55464;48.266;14.188;2023-05-24T00:19:23;97744.88;;;16.82;71.58
68476;BME280;55464;48.266;14.188;2023-05-24T00:21:48;97720.53;;;16.68;72.72
68476;BME280;55464;48.266;14.188;2023-05-24T00:24:14;97711.72;;;16.59;72.97
68476;BME280;55464;48.266;14.188;2023-05-24T00:26:41;97717.63;;;16.54;73.50
68476;BME280;55464;48.266;14.188;2023-05-24T00:29:07;97731.97;;;16.59;73.48
68476;BME280;55464;48.266;14.188;2023-05-24T00:31:33;97719.69;;;16.60;73.86
68476;BME280;55464;48.266;14.188;2023-05-24T00:33:58;97722.00;;;16.55;74.26
68476;BME280;55464;48.266;14.188;2023-05-24T00:36:23;97723.97;;;16.51;75.05
68476;BME280;55464;48.266;14.188;2023-05-24T00:38:49;97733.13;;;16.55;74.21
68476;BME280;55464;48.266;14.188;2023-05-24T00:41:14;97732.78;;;16.60;72.78
68476;BME280;55464;48.266;14.188;2023-05-24T00:43:40;97723.63;;;16.59;72.24
68476;BME280;55464;48.266;14.188;2023-05-24T00:46:18;97733.25;;;16.66;71.98
68476;BME280;55464;48.266;14.188;2023-05-24T00:48:47;97734.78;;;16.63;72.54
68476;BME280;55464;48.266;14.188;2023-05-24T00:51:13;97736.00;;;16.62;72.48
68476;BME280;55464;48.266;14.188;2023-05-24T00:53:40;97731.19;;;16.59;72.34
68476;BME280;55464;48.266;14.188;2023-05-24T00:56:07;97727.59;;;16.58;71.86
68476;BME280;55464;48.266;14.188;2023-05-24T00:58:33;97728.75;;;16.54;72.35
68476;BME280;55464;48.266;14.188;2023-05-24T01:01:00;97730.28;;;16.48;72.78
68476;BME280;55464;48.266;14.188;2023-05-24T01:03:26;97724.34;;;16.49;72.22
68476;BME280;55464;48.266;14.188;2023-05-24T01:05:59;97723.53;;;16.45;72.38
68476;BME280;55464;48.266;14.188;2023-05-24T01:16:24;97726.69;;;16.43;72.83
68476;BME280;55464;48.266;14.188;2023-05-24T01:18:56;97724.66;;;16.37;73.76
68476;BME280;55464;48.266;14.188;2023-05-24T01:27:00;97724.63;;;16.33;73.74
68476;BME280;55464;48.266;14.188;2023-05-24T01:29:28;97731.44;;;16.39;73.08
68476;BME280;55464;48.266;14.188;2023-05-24T01:31:55;97734.97;;;16.36;74.04
68476;BME280;55464;48.266;14.188;2023-05-24T01:34:21;97728.56;;;16.29;74.09
68476;BME280;55464;48.266;14.188;2023-05-24T01:36:46;97733.31;;;16.28;75.16
68476;BME280;55464;48.266;14.188;2023-05-24T01:39:12;97733.25;;;16.21;75.03
68476;BME280;55464;48.266;14.188;2023-05-24T01:44:46;97730.03;;;16.15;74.54
68476;BME280;55464;48.266;14.188;2023-05-24T01:50:13;97732.78;;;16.12;74.58
68476;BME280;55464;48.266;14.188;2023-05-24T01:52:41;97736.75;;;16.14;74.97
68476;BME280;55464;48.266;14.188;2023-05-24T01:55:08;97724.44;;;16.12;74.55
68476;BME280;55464;48.266;14.188;2023-05-24T01:57:35;97730.03;;;16.15;74.70
68476;BME280;55464;48.266;14.188;2023-05-24T02:00:03;97738.44;;;16.22;74.67
68476;BME280;55464;48.266;14.188;2023-05-24T02:02:30;97722.44;;;16.12;74.06
68476;BME280;55464;48.266;14.188;2023-05-24T02:04:55;97739.94;;;16.16;74.44
68476;BME280;55464;48.266;14.188;2023-05-24T02:07:21;97732.41;;;16.13;74.29
68476;BME280;55464;48.266;14.188;2023-05-24T02:09:46;97727.59;;;16.10;74.00
68476;BME280;55464;48.266;14.188;2023-05-24T02:12:11;97740.78;;;16.17;73.69
68476;BME280;55464;48.266;14.188;2023-05-24T02:14:37;97742.78;;;16.20;73.87
68476;BME280;55464;48.266;14.188;2023-05-24T02:17:03;97740.44;;;16.22;73.55
68476;BME280;55464;48.266;14.188;2023-05-24T02:19:30;97738.81;;;16.21;73.25
68476;BME280;55464;48.266;14.188;2023-05-24T02:21:55;97736.78;;;16.18;73.91
68476;BME280;55464;48.266;14.188;2023-05-24T02:24:20;97729.66;;;16.17;73.33
68476;BME280;55464;48.266;14.188;2023-05-24T02:26:46;97738.34;;;16.12;73.25
68476;BME280;55464;48.266;14.188;2023-05-24T02:29:11;97735.94;;;16.10;73.57
68476;BME280;55464;48.266;14.188;2023-05-24T02:31:37;97745.06;;;16.11;73.09
68476;BME280;55464;48.266;14.188;2023-05-24T02:34:02;97740.38;;;16.15;72.44
68476;BME280;55464;48.266;14.188;2023-05-24T02:36:27;97739.94;;;16.16;72.19
68476;BME280;55464;48.266;14.188;2023-05-24T02:38:53;97750.72;;;16.21;71.97
68476;BME280;55464;48.266;14.188;2023-05-24T02:41:18;97748.34;;;16.20;72.02
68476;BME280;55464;48.266;14.188;2023-05-24T02:43:44;97743.56;;;16.17;72.42
68476;BME280;55464;48.266;14.188;2023-05-24T02:46:10;97743.50;;;16.10;72.84
68476;BME280;55464;48.266;14.188;2023-05-24T02:48:36;97751.38;;;16.07;73.07
68476;BME280;55464;48.266;14.188;2023-05-24T02:51:01;97733.91;;;16.07;72.68
68476;BME280;55464;48.266;14.188;2023-05-24T02:53:28;97739.88;;;16.09;72.36
68476;BME280;55464;48.266;14.188;2023-05-24T02:55:53;97746.31;;;16.13;72.48
68476;BME280;55464;48.266;14.188;2023-05-24T02:58:19;97738.00;;;16.17;71.90
68476;BME280;55464;48.266;14.188;2023-05-24T03:00:44;97732.34;;;16.06;72.46
68476;BME280;55464;48.266;14.188;2023-05-24T03:03:09;97744.22;;;16.03;73.00
68476;BME280;55464;48.266;14.188;2023-05-24T03:05:35;97744.97;;;16.00;72.84
68476;BME280;55464;48.266;14.188;2023-05-24T03:08:00;97744.19;;;15.99;73.36
68476;BME280;55464;48.266;14.188;2023-05-24T03:10:26;97733.44;;;15.98;73.22
68476;BME280;55464;48.266;14.188;2023-05-24T03:12:51;97737.03;;;16.02;73.22
68476;BME280;55464;48.266;14.188;2023-05-24T03:15:17;97737.41;;;16.00;72.91
68476;BME280;55464;48.266;14.188;2023-05-24T03:17:42;97733.84;;;16.00;72.87
68476;BME280;55464;48.266;14.188;2023-05-24T03:20:08;97734.66;;;16.04;72.67
68476;BME280;55464;48.266;14.188;2023-05-24T03:22:35;97741.03;;;16.01;73.33
68476;BME280;55464;48.266;14.188;2023-05-24T03:25:01;97748.09;;;15.95;73.38
68476;BME280;55464;48.266;14.188;2023-05-24T03:27:26;97750.50;;;15.96;73.24
68476;BME280;55464;48.266;14.188;2023-05-24T03:29:51;97755.34;;;16.03;71.78
68476;BME280;55464;48.266;14.188;2023-05-24T03:32:17;97752.47;;;15.96;72.96
68476;BME280;55464;48.266;14.188;2023-05-24T03:34:42;97758.50;;;16.01;72.76
68476;BME280;55464;48.266;14.188;2023-05-24T03:37:08;97759.63;;;15.97;72.41
68476;BME280;55464;48.266;14.188;2023-05-24T03:39:33;97756.81;;;15.93;72.77
68476;BME280;55464;48.266;14.188;2023-05-24T03:41:59;97767.47;;;15.87;74.34
68476;BME280;55464;48.266;14.188;2023-05-24T03:44:24;97763.50;;;15.85;74.82
68476;BME280;55464;48.266;14.188;2023-05-24T03:46:50;97770.06;;;15.73;74.41
68476;BME280;55464;48.266;14.188;2023-05-24T03:49:15;97778.13;;;15.82;73.78
68476;BME280;55464;48.266;14.188;2023-05-24T03:51:41;97769.34;;;15.76;73.69
68476;BME280;55464;48.266;14.188;2023-05-24T03:54:06;97768.56;;;15.79;73.54
68476;BME280;55464;48.266;14.188;2023-05-24T03:56:31;97778.56;;;15.84;73.59
68476;BME280;55464;48.266;14.188;2023-05-24T03:58:57;97771.38;;;15.83;73.48
68476;BME280;55464;48.266;14.188;2023-05-24T04:01:24;97785.38;;;15.90;73.42
68476;BME280;55464;48.266;14.188;2023-05-24T04:03:50;97783.72;;;15.85;73.45
68476;BME280;55464;48.266;14.188;2023-05-24T04:06:16;97785.22;;;15.79;73.62
68476;BME280;55464;48.266;14.188;2023-05-24T04:08:42;97794.44;;;15.83;73.56
68476;BME280;55464;48.266;14.188;2023-05-24T04:11:08;97793.25;;;15.84;73.44
68476;BME280;55464;48.266;14.188;2023-05-24T04:13:33;97781.28;;;15.80;73.22
68476;BME280;55464;48.266;14.188;2023-05-24T04:15:59;97781.66;;;15.79;73.15
68476;BME280;55464;48.266;14.188;2023-05-24T04:18:24;97793.19;;;15.81;73.15
68476;BME280;55464;48.266;14.188;2023-05-24T04:20:49;97783.25;;;15.76;73.89
68476;BME280;55464;48.266;14.188;2023-05-24T04:23:15;97783.47;;;15.64;73.98
68476;BME280;55464;48.266;14.188;2023-05-24T04:25:41;97776.63;;;15.58;74.88
68476;BME280;55464;48.266;14.188;2023-05-24T04:28:06;97785.00;;;15.61;75.45
68476;BME280;55464;48.266;14.188;2023-05-24T04:30:32;97785.47;;;15.67;74.30
68476;BME280;55464;48.266;14.188;2023-05-24T04:32:58;97781.94;;;15.70;74.54
68476;BME280;55464;48.266;14.188;2023-05-24T04:35:24;97792.00;;;15.78;74.41
68476;BME280;55464;48.266;14.188;2023-05-24T04:37:52;97793.56;;;15.79;74.35
68476;BME280;55464;48.266;14.188;2023-05-24T04:40:17;97795.06;;;15.73;74.52
68476;BME280;55464;48.266;14.188;2023-05-24T04:42:47;97803.09;;;15.78;74.92
68476;BME280;55464;48.266;14.188;2023-05-24T04:45:13;97806.63;;;15.75;74.54
68476;BME280;55464;48.266;14.188;2023-05-24T04:47:40;97803.38;;;15.69;75.07
68476;BME280;55464;48.266;14.188;2023-05-24T04:50:05;97802.13;;;15.67;75.49
68476;BME280;55464;48.266;14.188;2023-05-24T04:52:31;97802.94;;;15.67;76.14
68476;BME280;55464;48.266;14.188;2023-05-24T04:54:57;97799.31;;;15.63;76.20
68476;BME280;55464;48.266;14.188;2023-05-24T04:57:22;97800.91;;;15.64;76.35
68476;BME280;55464;48.266;14.188;2023-05-24T04:59:48;97807.25;;;15.65;76.66
68476;BME280;55464;48.266;14.188;2023-05-24T05:02:13;97814.00;;;15.64;76.73
68476;BME280;55464;48.266;14.188;2023-05-24T05:04:39;97804.84;;;15.63;77.08
68476;BME280;55464;48.266;14.188;2023-05-24T05:07:04;97805.22;;;15.62;77.05
68476;BME280;55464;48.266;14.188;2023-05-24T05:09:30;97802.84;;;15.60;76.50
68476;BME280;55464;48.266;14.188;2023-05-24T05:11:55;97806.09;;;15.66;75.22
68476;BME280;55464;48.266;14.188;2023-05-24T05:14:20;97804.53;;;15.68;73.81
68476;BME280;55464;48.266;14.188;2023-05-24T05:16:46;97794.63;;;15.67;73.30
68476;BME280;55464;48.266;14.188;2023-05-24T05:19:11;97800.63;;;15.73;73.20
68476;BME280;55464;48.266;14.188;2023-05-24T05:21:37;97804.66;;;15.76;73.03
68476;BME280;55464;48.266;14.188;2023-05-24T05:24:04;97795.38;;;15.64;72.59
68476;BME280;55464;48.266;14.188;2023-05-24T05:26:30;97804.16;;;15.70;72.57
68476;BME280;55464;48.266;14.188;2023-05-24T05:28:58;97816.50;;;15.73;72.41
68476;BME280;55464;48.266;14.188;2023-05-24T05:31:24;97819.25;;;15.69;72.65
68476;BME280;55464;48.266;14.188;2023-05-24T05:33:49;97809.28;;;15.68;72.67
68476;BME280;55464;48.266;14.188;2023-05-24T05:36:15;97815.59;;;15.65;70.86
68476;BME280;55464;48.266;14.188;2023-05-24T05:38:41;97804.03;;;15.59;70.64
68476;BME280;55464;48.266;14.188;2023-05-24T05:41:07;97814.34;;;15.59;70.25
68476;BME280;55464;48.266;14.188;2023-05-24T05:43:32;97815.56;;;15.61;69.88
68476;BME280;55464;48.266;14.188;2023-05-24T05:45:58;97816.34;;;15.62;69.97
68476;BME280;55464;48.266;14.188;2023-05-24T05:48:24;97819.91;;;15.59;70.83
68476;BME280;55464;48.266;14.188;2023-05-24T05:50:50;97824.53;;;15.51;69.89
68476;BME280;55464;48.266;14.188;2023-05-24T05:53:15;97837.19;;;15.45;70.11
68476;BME280;55464;48.266;14.188;2023-05-24T05:55:41;97848.28;;;15.45;70.49
68476;BME280;55464;48.266;14.188;2023-05-24T05:58:06;97841.81;;;15.37;70.66
68476;BME280;55464;48.266;14.188;2023-05-24T06:00:32;97841.91;;;15.44;70.18
68476;BME280;55464;48.266;14.188;2023-05-24T06:02:57;97835.88;;;15.39;70.77
68476;BME280;55464;48.266;14.188;2023-05-24T06:05:22;97831.56;;;15.41;71.35
68476;BME280;55464;48.266;14.188;2023-05-24T06:07:48;97836.63;;;15.36;70.08
68476;BME280;55464;48.266;14.188;2023-05-24T06:10:13;97830.75;;;15.41;70.33
68476;BME280;55464;48.266;14.188;2023-05-24T06:12:39;97823.97;;;15.38;70.76
68476;BME280;55464;48.266;14.188;2023-05-24T06:15:06;97841.53;;;15.46;70.79
68476;BME280;55464;48.266;14.188;2023-05-24T06:17:32;97838.38;;;15.47;71.53
68476;BME280;55464;48.266;14.188;2023-05-24T06:19:58;97842.00;;;15.48;71.49
68476;BME280;55464;48.266;14.188;2023-05-24T06:22:24;97832.00;;;15.43;70.58
68476;BME280;55464;48.266;14.188;2023-05-24T06:24:52;97831.19;;;15.43;69.93
68476;BME280;55464;48.266;14.188;2023-05-24T06:27:17;97850.38;;;15.52;70.45
68476;BME280;55464;48.266;14.188;2023-05-24T06:29:43;97853.94;;;15.52;70.26
68476;BME280;55464;48.266;14.188;2023-05-24T06:32:08;97843.28;;;15.58;71.13
68476;BME280;55464;48.266;14.188;2023-05-24T06:34:34;97852.91;;;15.64;71.77
68476;BME280;55464;48.266;14.188;2023-05-24T06:36:59;97830.94;;;15.52;71.01
68476;BME280;55464;48.266;14.188;2023-05-24T06:39:26;97853.69;;;15.64;70.25
68476;BME280;55464;48.266;14.188;2023-05-24T06:41:52;97862.47;;;15.66;70.18
68476;BME280;55464;48.266;14.188;2023-05-24T06:44:18;97858.88;;;15.66;69.51
68476;BME280;55464;48.266;14.188;2023-05-24T06:46:43;97864.03;;;15.64;69.22
68476;BME280;55464;48.266;14.188;2023-05-24T06:49:08;97865.19;;;15.63;68.88
68476;BME280;55464;48.266;14.188;2023-05-24T06:51:34;97871.91;;;15.62;69.25
68476;BME280;55464;48.266;14.188;2023-05-24T06:54:01;97858.34;;;15.57;69.56
68476;BME280;55464;48.266;14.188;2023-05-24T06:56:27;97867.50;;;15.57;70.11
68476;BME280;55464;48.266;14.188;2023-05-24T06:58:54;97879.09;;;15.63;69.68
68476;BME280;55464;48.266;14.188;2023-05-24T07:01:19;97884.25;;;15.64;69.81
68476;BME280;55464;48.266;14.188;2023-05-24T07:03:45;97876.31;;;15.63;69.68
68476;BME280;55464;48.266;14.188;2023-05-24T07:06:11;97873.91;;;15.61;69.21
68476;BME280;55464;48.266;14.188;2023-05-24T07:08:39;97880.28;;;15.65;69.38
68476;BME280;55464;48.266;14.188;2023-05-24T07:11:05;97883.88;;;15.66;70.09
68476;BME280;55464;48.266;14.188;2023-05-24T07:13:32;97869.94;;;15.62;69.95
68476;BME280;55464;48.266;14.188;2023-05-24T07:15:57;97884.72;;;15.70;70.35
68476;BME280;55464;48.266;14.188;2023-05-24T07:18:22;97884.25;;;15.64;70.29
68476;BME280;55464;48.266;14.188;2023-05-24T07:20:48;97880.69;;;15.64;71.35
68476;BME280;55464;48.266;14.188;2023-05-24T07:23:13;97887.50;;;15.70;70.85
68476;BME280;55464;48.266;14.188;2023-05-24T07:25:38;97878.72;;;15.64;70.12
68476;BME280;55464;48.266;14.188;2023-05-24T07:28:04;97862.00;;;15.61;70.40
68476;BME280;55464;48.266;14.188;2023-05-24T07:30:30;97889.13;;;15.71;70.17
68476;BME280;55464;48.266;14.188;2023-05-24T07:32:55;97870.84;;;15.70;69.51
68476;BME280;55464;48.266;14.188;2023-05-24T07:35:21;97863.28;;;15.70;69.98
68476;BME280;55464;48.266;14.188;2023-05-24T07:37:48;97870.59;;;15.79;69.76
68476;BME280;55464;48.266;14.188;2023-05-24T07:40:13;97871.81;;;15.81;69.90
68476;BME280;55464;48.266;14.188;2023-05-24T07:42:39;97873.50;;;15.90;70.80
68476;BME280;55464;48.266;14.188;2023-05-24T07:45:06;97884.72;;;15.97;71.16
68476;BME280;55464;48.266;14.188;2023-05-24T07:47:33;97869.59;;;15.94;70.36
68476;BME280;55464;48.266;14.188;2023-05-24T07:49:58;97882.00;;;16.04;70.52
68476;BME280;55464;48.266;14.188;2023-05-24T07:52:24;97868.97;;;16.08;70.89
68476;BME280;55464;48.266;14.188;2023-05-24T07:54:50;97883.78;;;16.19;70.42
68476;BME280;55464;48.266;14.188;2023-05-24T07:57:17;97884.16;;;16.18;69.53
68476;BME280;55464;48.266;14.188;2023-05-24T07:59:43;97869.06;;;16.15;69.22
68476;BME280;55464;48.266;14.188;2023-05-24T08:02:08;97878.59;;;16.18;69.49
68476;BME280;55464;48.266;14.188;2023-05-24T08:04:36;97880.28;;;16.26;70.52
68476;BME280;55464;48.266;14.188;2023-05-24T08:07:01;97874.34;;;16.28;70.17
68476;BME280;55464;48.266;14.188;2023-05-24T08:09:27;97885.03;;;16.22;68.71
68476;BME280;55464;48.266;14.188;2023-05-24T08:12:00;97883.13;;;16.30;69.33
68476;BME280;55464;48.266;14.188;2023-05-24T08:14:26;97882.28;;;16.25;68.45
68476;BME280;55464;48.266;14.188;2023-05-24T08:16:52;97871.56;;;16.28;70.35
68476;BME280;55464;48.266;14.188;2023-05-24T08:19:17;97880.00;;;16.35;70.33
68476;BME280;55464;48.266;14.188;2023-05-24T08:21:43;97883.06;;;16.26;70.05
68476;BME280;55464;48.266;14.188;2023-05-24T08:24:08;97886.28;;;16.28;70.47
68476;BME280;55464;48.266;14.188;2023-05-24T08:26:34;97887.44;;;16.23;69.84
68476;BME280;55464;48.266;14.188;2023-05-24T08:28:59;97878.63;;;16.21;69.75
68476;BME280;55464;48.266;14.188;2023-05-24T08:31:25;97881.88;;;16.23;70.65
68476;BME280;55464;48.266;14.188;2023-05-24T08:33:50;97879.50;;;16.25;69.89
68476;BME280;55464;48.266;14.188;2023-05-24T08:36:17;97877.47;;;16.22;70.28
68476;BME280;55464;48.266;14.188;2023-05-24T08:38:42;97885.84;;;16.26;69.51
68476;BME280;55464;48.266;14.188;2023-05-24T08:41:09;97874.63;;;16.15;70.96
68476;BME280;55464;48.266;14.188;2023-05-24T08:43:36;97877.56;;;16.30;72.13
68476;BME280;55464;48.266;14.188;2023-05-24T08:46:03;97885.63;;;16.42;69.87
68476;BME280;55464;48.266;14.188;2023-05-24T08:48:29;97883.63;;;16.42;70.44
68476;BME280;55464;48.266;14.188;2023-05-24T08:50:56;97883.38;;;16.55;72.47
68476;BME280;55464;48.266;14.188;2023-05-24T08:53:22;97874.69;;;16.60;72.14
68476;BME280;55464;48.266;14.188;2023-05-24T08:55:49;97885.78;;;16.56;70.41
68476;BME280;55464;48.266;14.188;2023-05-24T08:58:18;97883.09;;;16.67;71.42
68476;BME280;55464;48.266;14.188;2023-05-24T09:00:43;97885.16;;;16.74;72.20
68476;BME280;55464;48.266;14.188;2023-05-24T09:03:09;97879.66;;;16.81;72.14
68476;BME280;55464;48.266;14.188;2023-05-24T09:05:36;97883.72;;;16.87;72.50
68476;BME280;55464;48.266;14.188;2023-05-24T09:08:01;97877.75;;;16.85;69.92
68476;BME280;55464;48.266;14.188;2023-05-24T09:10:28;97872.25;;;16.92;71.89
68476;BME280;55464;48.266;14.188;2023-05-24T09:12:57;97870.56;;;16.84;69.76
68476;BME280;55464;48.266;14.188;2023-05-24T09:15:22;97880.56;;;16.89;71.31
68476;BME280;55464;48.266;14.188;2023-05-24T09:17:48;97876.56;;;16.90;69.85
68476;BME280;55464;48.266;14.188;2023-05-24T09:20:13;97878.97;;;16.91;69.42
68476;BME280;55464;48.266;14.188;2023-05-24T09:22:42;97868.59;;;16.88;68.67
68476;BME280;55464;48.266;14.188;2023-05-24T09:25:09;97877.81;;;16.92;69.99
68476;BME280;55464;48.266;14.188;2023-05-24T09:27:35;97882.63;;;16.99;69.83
68476;BME280;55464;48.266;14.188;2023-05-24T09:30:02;97871.94;;;17.05;70.70
68476;BME280;55464;48.266;14.188;2023-05-24T09:32:30;97860.34;;;16.95;68.89
68476;BME280;55464;48.266;14.188;2023-05-24T09:34:57;97868.28;;;16.97;68.78
68476;BME280;55464;48.266;14.188;2023-05-24T09:37:24;97865.16;;;17.06;70.57
68476;BME280;55464;48.266;14.188;2023-05-24T09:39:52;97854.88;;;17.10;70.78
68476;BME280;55464;48.266;14.188;2023-05-24T09:42:19;97871.22;;;17.15;67.98
68476;BME280;55464;48.266;14.188;2023-05-24T09:45:08;97869.22;;;17.12;68.69
68476;BME280;55464;48.266;14.188;2023-05-24T09:47:37;97868.03;;;17.13;68.06
68476;BME280;55464;48.266;14.188;2023-05-24T09:50:04;97869.63;;;17.17;68.28
68476;BME280;55464;48.266;14.188;2023-05-24T09:52:31;97860.94;;;17.23;70.09
68476;BME280;55464;48.266;14.188;2023-05-24T09:55:18;97868.50;;;17.22;67.99
68476;BME280;55464;48.266;14.188;2023-05-24T09:57:49;97864.50;;;17.23;65.36
68476;BME280;55464;48.266;14.188;2023-05-24T10:00:21;97863.00;;;17.33;63.43
68476;BME280;55464;48.266;14.188;2023-05-24T10:03:00;97858.22;;;17.37;64.73
68476;BME280;55464;48.266;14.188;2023-05-24T10:05:26;97857.47;;;17.40;63.19
68476;BME280;55464;48.266;14.188;2023-05-24T10:07:53;97849.50;;;17.42;64.16
68476;BME280;55464;48.266;14.188;2023-05-24T10:10:19;97852.28;;;17.42;63.73
68476;BME280;55464;48.266;14.188;2023-05-24T10:12:45;97861.84;;;17.41;63.16
68476;BME280;55464;48.266;14.188;2023-05-24T10:15:11;97836.78;;;17.41;64.53
68476;BME280;55464;48.266;14.188;2023-05-24T10:17:36;97841.19;;;17.49;66.93
68476;BME280;55464;48.266;14.188;2023-05-24T10:20:02;97839.22;;;17.50;63.41
68476;BME280;55464;48.266;14.188;2023-05-24T10:22:31;97836.88;;;17.55;62.71
68476;BME280;55464;48.266;14.188;2023-05-24T10:24:59;97843.25;;;17.60;62.75
68476;BME280;55464;48.266;14.188;2023-05-24T10:27:27;97844.13;;;17.71;65.01
68476;BME280;55464;48.266;14.188;2023-05-24T10:30:13;97840.97;;;17.80;66.70
68476;BME280;55464;48.266;14.188;2023-05-24T10:32:42;97840.63;;;17.88;67.38
68476;BME280;55464;48.266;14.188;2023-05-24T10:35:09;97845.44;;;17.99;65.62
68476;BME280;55464;48.266;14.188;2023-05-24T10:37:39;97840.31;;;18.08;67.48
68476;BME280;55464;48.266;14.188;2023-05-24T10:40:07;97842.31;;;18.11;66.33
68476;BME280;55464;48.266;14.188;2023-05-24T10:42:42;97846.28;;;18.06;63.75
68476;BME280;55464;48.266;14.188;2023-05-24T10:47:51;97835.13;;;18.06;63.53
68476;BME280;55464;48.266;14.188;2023-05-24T10:50:19;97847.50;;;18.16;64.21
68476;BME280;55464;48.266;14.188;2023-05-24T10:52:47;97845.53;;;18.17;61.21
68476;BME280;55464;48.266;14.188;2023-05-24T10:55:13;97838.72;;;18.18;62.70
68476;BME280;55464;48.266;14.188;2023-05-24T10:57:39;97846.34;;;18.31;63.72
68476;BME280;55464;48.266;14.188;2023-05-24T11:02:50;97838.81;;;18.39;63.03
68476;BME280;55464;48.266;14.188;2023-05-24T11:05:16;97835.63;;;18.41;64.48
68476;BME280;55464;48.266;14.188;2023-05-24T11:07:43;97834.41;;;18.45;63.33
68476;BME280;55464;48.266;14.188;2023-05-24T11:10:12;97845.19;;;18.43;59.60
68476;BME280;55464;48.266;14.188;2023-05-24T11:12:39;97854.75;;;18.46;63.59
68476;BME280;55464;48.266;14.188;2023-05-24T11:15:08;97844.00;;;18.44;64.23
68476;BME280;55464;48.266;14.188;2023-05-24T11:20:37;97845.97;;;18.37;65.02
68476;BME280;55464;48.266;14.188;2023-05-24T11:23:03;97847.16;;;18.32;64.88
68476;BME280;55464;48.266;14.188;2023-05-24T11:25:29;97853.13;;;18.27;64.35
68476;BME280;55464;48.266;14.188;2023-05-24T11:27:57;97846.31;;;18.21;64.77
68476;BME280;55464;48.266;14.188;2023-05-24T11:30:23;97845.91;;;18.19;64.29
68476;BME280;55464;48.266;14.188;2023-05-24T11:32:49;97838.34;;;18.16;64.63
68476;BME280;55464;48.266;14.188;2023-05-24T11:35:14;97845.13;;;18.14;65.45
68476;BME280;55464;48.266;14.188;2023-05-24T11:37:40;97840.31;;;18.11;64.81
68476;BME280;55464;48.266;14.188;2023-05-24T11:40:07;97833.13;;;18.07;64.86
68476;BME280;55464;48.266;14.188;2023-05-24T11:42:36;97842.72;;;18.13;65.02
68476;BME280;55464;48.266;14.188;2023-05-24T11:45:03;97832.72;;;18.08;64.92
68476;BME280;55464;48.266;14.188;2023-05-24T11:47:29;97839.53;;;18.11;64.52
68476;BME280;55464;48.266;14.188;2023-05-24T11:49:54;97825.97;;;18.06;64.46
68476;BME280;55464;48.266;14.188;2023-05-24T11:52:20;97823.59;;;18.15;64.20
68476;BME280;55464;48.266;14.188;2023-05-24T11:54:46;97838.75;;;18.21;64.53
68476;BME280;55464;48.266;14.188;2023-05-24T11:57:13;97836.78;;;18.25;64.74
68476;BME280;55464;48.266;14.188;2023-05-24T11:59:40;97836.38;;;18.23;64.77
68476;BME280;55464;48.266;14.188;2023-05-24T12:02:05;97835.94;;;18.21;63.94
68476;BME280;55464;48.266;14.188;2023-05-24T12:04:33;97831.97;;;18.22;64.37
68476;BME280;55464;48.266;14.188;2023-05-24T12:07:00;97839.19;;;18.27;63.99
68476;BME280;55464;48.266;14.188;2023-05-24T12:09:26;97822.81;;;18.22;63.53
68476;BME280;55464;48.266;14.188;2023-05-24T12:11:52;97826.00;;;18.20;62.38
68476;BME280;55464;48.266;14.188;2023-05-24T12:14:32;97829.19;;;18.22;63.49
68476;BME280;55464;48.266;14.188;2023-05-24T12:16:58;97832.78;;;18.23;63.27
68476;BME280;55464;48.266;14.188;2023-05-24T12:19:29;97826.78;;;18.17;63.22
68476;BME280;55464;48.266;14.188;2023-05-24T12:21:58;97827.56;;;18.14;62.68
68476;BME280;55464;48.266;14.188;2023-05-24T12:24:24;97831.56;;;18.17;63.64
68476;BME280;55464;48.266;14.188;2023-05-24T12:26:50;97833.56;;;18.20;63.86
68476;BME280;55464;48.266;14.188;2023-05-24T12:29:16;97805.25;;;18.10;63.83
68476;BME280;55464;48.266;14.188;2023-05-24T12:31:43;97828.41;;;18.25;63.40
68476;BME280;55464;48.266;14.188;2023-05-24T12:34:13;97825.22;;;18.27;62.05
68476;BME280;55464;48.266;14.188;2023-05-24T12:36:40;97811.66;;;18.25;62.06
68476;BME280;55464;48.266;14.188;2023-05-24T12:39:23;97828.03;;;18.41;63.17
68476;BME280;55464;48.266;14.188;2023-05-24T12:41:55;97824.88;;;18.46;63.31
68476;BME280;55464;48.266;14.188;2023-05-24T12:44:25;97829.63;;;18.49;62.88
68476;BME280;55464;48.266;14.188;2023-05-24T12:46:54;97831.25;;;18.54;61.56
68476;BME280;55464;48.266;14.188;2023-05-24T12:49:24;97826.44;;;18.47;60.71
68476;BME280;55464;48.266;14.188;2023-05-24T12:51:50;97824.88;;;18.54;61.97
68476;BME280;55464;48.266;14.188;2023-05-24T12:54:21;97818.50;;;18.57;62.76
68476;BME280;55464;48.266;14.188;2023-05-24T12:56:47;97830.84;;;18.59;62.09
68476;BME280;55464;48.266;14.188;2023-05-24T12:59:13;97819.28;;;18.61;61.74
68476;BME280;55464;48.266;14.188;2023-05-24T13:01:39;97809.31;;;18.56;61.99
68476;BME280;55464;48.266;14.188;2023-05-24T13:04:04;97823.69;;;18.65;61.60
68476;BME280;55464;48.266;14.188;2023-05-24T13:06:30;97815.31;;;18.62;61.92
68476;BME280;55464;48.266;14.188;2023-05-24T13:08:55;97814.09;;;18.66;62.02
68476;BME280;55464;48.266;14.188;2023-05-24T13:11:21;97822.47;;;18.77;61.84
68476;BME280;55464;48.266;14.188;2023-05-24T13:13:49;97820.94;;;18.87;61.24
68476;BME280;55464;48.266;14.188;2023-05-24T13:16:14;97812.16;;;18.88;61.09